createdAt,value
2023-06-29T00:00:32.294Z,99226.19
2023-06-29T00:03:19.797Z,99228.09
2023-06-29T00:05:47.340Z,99229.97
2023-06-29T00:08:14.595Z,99233.22
2023-06-29T00:10:41.683Z,99235.59
2023-06-29T00:13:08.985Z,99230.19
2023-06-29T00:15:36.109Z,99233.47
2023-06-29T00:18:03.562Z,99231.56
2023-06-29T00:20:30.761Z,99233.75
2023-06-29T00:22:58.163Z,99238.31
2023-06-29T00:25:25.339Z,99232.13
2023-06-29T00:27:52.706Z,99229.47
2023-06-29T00:30:21.003Z,99225.69
2023-06-29T00:32:48.307Z,99216.53
2023-06-29T00:35:15.678Z,99211.94
2023-06-29T00:37:45.584Z,99206.53
2023-06-29T00:40:13.672Z,99224.63
2023-06-29T00:42:41.595Z,99219.47
2023-06-29T00:45:11.521Z,99216.50
2023-06-29T00:47:39.399Z,99215.97
2023-06-29T00:50:08.137Z,99219.19
2023-06-29T00:52:36.014Z,99217.06
2023-06-29T00:55:03.958Z,99204.63
2023-06-29T00:57:31.286Z,99207.91
2023-06-29T01:00:01.648Z,99203.56
2023-06-29T01:02:31.222Z,99199.25
2023-06-29T01:04:59.400Z,99203.03
2023-06-29T01:08:03.735Z,99203.84
2023-06-29T01:10:34.606Z,99204.63
2023-06-29T01:13:04.868Z,99201.38
2023-06-29T01:15:32.392Z,99204.38
2023-06-29T01:18:04.692Z,99202.72
2023-06-29T01:20:34.229Z,99203.53
2023-06-29T01:23:24.641Z,99202.72
2023-06-29T01:25:56.075Z,99197.59
2023-06-29T01:28:27.577Z,99200.31
2023-06-29T01:30:55.075Z,99201.38
2023-06-29T01:33:25.576Z,99199.75
2023-06-29T01:36:02.377Z,99202.97
2023-06-29T01:38:40.431Z,99192.72
2023-06-29T01:41:10.852Z,99198.09
2023-06-29T01:43:39.006Z,99204.56
2023-06-29T01:46:06.519Z,99194.84
2023-06-29T01:48:36.759Z,99197.84
2023-06-29T01:51:04.271Z,99202.41
2023-06-29T01:53:32.958Z,99200.75
2023-06-29T01:56:05.232Z,99199.16
2023-06-29T01:58:32.673Z,99199.16
2023-06-29T02:00:59.766Z,99202.91
2023-06-29T02:03:27.464Z,99197.53
2023-06-29T02:05:54.659Z,99193.47
2023-06-29T02:08:22.066Z,99201.81
2023-06-29T02:10:49.168Z,99202.06
2023-06-29T02:13:16.476Z,99200.72
2023-06-29T02:15:43.750Z,99203.66
2023-06-29T02:18:11.673Z,99204.19
2023-06-29T02:20:41.695Z,99214.16
2023-06-29T02:23:09.099Z,99210.91
2023-06-29T02:25:36.163Z,99214.69
2023-06-29T02:28:04.231Z,99220.06
2023-06-29T02:30:31.295Z,99220.63
2023-06-29T02:32:58.700Z,99226.78
2023-06-29T02:35:25.850Z,99223.31
2023-06-29T02:37:53.418Z,99227.63
2023-06-29T02:40:20.796Z,99233.31
2023-06-29T02:42:48.106Z,99230.34
2023-06-29T02:45:15.624Z,99240.06
2023-06-29T02:47:43.456Z,99238.97
2023-06-29T02:50:10.984Z,99241.66
2023-06-29T02:52:45.359Z,99241.13
2023-06-29T02:55:12.429Z,99233.84
2023-06-29T02:57:40.531Z,99239.56
2023-06-29T03:00:10.353Z,99239.56
2023-06-29T03:02:38.658Z,99235.22
2023-06-29T03:05:06.558Z,99232.53
2023-06-29T03:07:36.264Z,99242.50
2023-06-29T03:10:03.568Z,99238.72
2023-06-29T03:12:31.313Z,99251.94
2023-06-29T03:14:58.314Z,99243.84
2023-06-29T03:17:25.819Z,99248.19
2023-06-29T03:19:52.878Z,99241.16
2023-06-29T03:22:20.175Z,99246.31
2023-06-29T03:24:47.191Z,99255.19
2023-06-29T03:27:14.500Z,99255.19
2023-06-29T03:29:41.457Z,99255.19
2023-06-29T03:32:09.299Z,99256.81
2023-06-29T03:34:36.336Z,99260.06
2023-06-29T03:37:03.974Z,99254.41
2023-06-29T03:39:31.028Z,99256.31
2023-06-29T03:41:58.332Z,99261.16
2023-06-29T03:44:25.320Z,99273.56
2023-06-29T03:46:53.087Z,99265.47
2023-06-29T03:49:20.093Z,99271.41
2023-06-29T03:51:47.377Z,99258.47
2023-06-29T03:54:14.538Z,99275.22
2023-06-29T03:56:41.844Z,99268.75
2023-06-29T03:59:08.997Z,99269.56
2023-06-29T04:01:36.263Z,99279.84
2023-06-29T04:04:03.356Z,99278.50
2023-06-29T04:06:30.786Z,99285.50
2023-06-29T04:08:57.831Z,99281.75
2023-06-29T04:11:25.087Z,99277.16
2023-06-29T04:13:52.425Z,99283.94
2023-06-29T04:16:19.744Z,99286.06
2023-06-29T04:18:46.803Z,99282.31
2023-06-29T04:21:14.159Z,99284.75
2023-06-29T04:23:41.603Z,99289.91
2023-06-29T04:26:10.690Z,99298.25
2023-06-29T04:28:37.904Z,99299.06
2023-06-29T04:31:05.273Z,99295.88
2023-06-29T04:33:32.525Z,99300.97
2023-06-29T04:35:59.796Z,99299.66
2023-06-29T04:38:28.720Z,99300.75
2023-06-29T04:41:04.267Z,99299.16
2023-06-29T04:43:32.627Z,99302.44
2023-06-29T04:46:05.207Z,99309.72
2023-06-29T04:48:38.810Z,99307.91
2023-06-29T04:51:07.259Z,99303.88
2023-06-29T04:53:38.069Z,99308.50
2023-06-29T04:56:07.969Z,99307.47
2023-06-29T04:58:35.369Z,99308.56
2023-06-29T05:01:02.944Z,99299.13
2023-06-29T05:03:30.830Z,99305.91
2023-06-29T05:05:58.154Z,99302.41
2023-06-29T05:08:25.141Z,99309.69
2023-06-29T05:10:52.400Z,99315.09
2023-06-29T05:13:19.474Z,99307.53
2023-06-29T05:15:49.026Z,99308.88
2023-06-29T05:18:16.960Z,99317.28
2023-06-29T05:20:44.664Z,99308.38
2023-06-29T05:23:12.611Z,99317.00
2023-06-29T05:25:42.066Z,99304.31
2023-06-29T05:28:09.615Z,99309.75
2023-06-29T05:30:37.200Z,99310.56
2023-06-29T05:33:05.678Z,99315.41
2023-06-29T05:35:35.521Z,99314.63
2023-06-29T05:38:03.322Z,99316.75
2023-06-29T05:40:30.927Z,99312.47
2023-06-29T05:42:58.036Z,99315.16
2023-06-29T05:45:25.363Z,99314.59
2023-06-29T05:47:52.386Z,99322.75
2023-06-29T05:50:21.678Z,99323.03
2023-06-29T05:52:50.996Z,99326.56
2023-06-29T05:55:20.435Z,99324.94
2023-06-29T05:57:48.335Z,99320.88
2023-06-29T06:00:16.608Z,99329.81
2023-06-29T06:02:45.863Z,99335.75
2023-06-29T06:05:13.950Z,99324.41
2023-06-29T06:07:41.293Z,99324.41
2023-06-29T06:10:09.112Z,99329.22
2023-06-29T06:12:36.179Z,99331.94
2023-06-29T06:15:06.863Z,99329.47
2023-06-29T06:17:34.084Z,99327.53
2023-06-29T06:20:02.553Z,99323.47
2023-06-29T06:22:29.673Z,99326.38
2023-06-29T06:24:57.101Z,99326.56
2023-06-29T06:27:24.898Z,99330.59
2023-06-29T06:29:52.202Z,99316.47
2023-06-29T06:32:21.250Z,99327.25
2023-06-29T06:34:51.961Z,99323.63
2023-06-29T06:37:20.325Z,99326.56
2023-06-29T06:39:47.824Z,99328.91
2023-06-29T06:42:14.975Z,99313.72
2023-06-29T06:44:54.014Z,99320.91
2023-06-29T06:47:21.730Z,99319.22
2023-06-29T06:49:49.210Z,99320.28
2023-06-29T06:52:16.464Z,99324.59
2023-06-29T06:54:43.960Z,99320.84
2023-06-29T06:57:11.503Z,99321.91
2023-06-29T06:59:39.019Z,99319.72
2023-06-29T07:02:07.639Z,99319.47
2023-06-29T07:04:35.968Z,99315.91
2023-06-29T07:07:04.554Z,99315.81
2023-06-29T07:09:32.034Z,99324.00
2023-06-29T07:11:59.631Z,99318.22
2023-06-29T07:14:27.272Z,99320.06
2023-06-29T07:16:56.085Z,99319.97
2023-06-29T07:24:23.960Z,99324.09
2023-06-29T07:26:51.236Z,99316.91
2023-06-29T07:29:18.661Z,99319.22
2023-06-29T07:31:46.212Z,99325.22
2023-06-29T07:34:13.636Z,99316.06
2023-06-29T07:36:41.221Z,99312.41
2023-06-29T07:39:08.745Z,99315.00
2023-06-29T07:41:35.905Z,99310.38
2023-06-29T07:44:03.256Z,99316.16
2023-06-29T07:46:32.795Z,99317.03
2023-06-29T07:49:00.527Z,99312.81
2023-06-29T07:51:33.282Z,99320.22
2023-06-29T07:54:05.457Z,99317.66
2023-06-29T07:59:03.587Z,99311.47
2023-06-29T08:01:31.162Z,99314.25
2023-06-29T08:04:03.089Z,99312.34
2023-06-29T08:09:03.606Z,99307.13
2023-06-29T08:11:30.974Z,99312.19
2023-06-29T08:13:58.390Z,99308.28
2023-06-29T08:16:25.795Z,99300.53
2023-06-29T08:18:55.288Z,99299.19
2023-06-29T08:21:22.372Z,99305.75
2023-06-29T08:23:51.773Z,99304.94
2023-06-29T08:26:19.402Z,99298.50
2023-06-29T08:28:46.897Z,99307.97
2023-06-29T08:31:14.152Z,99302.41
2023-06-29T08:33:41.886Z,99291.84
2023-06-29T08:36:09.002Z,99298.41
2023-06-29T08:38:36.462Z,99306.31
2023-06-29T08:41:06.642Z,99300.47
2023-06-29T08:43:34.114Z,99299.00
2023-06-29T08:46:04.111Z,99294.78
2023-06-29T08:48:35.392Z,99302.31
2023-06-29T08:51:08.794Z,99300.66
2023-06-29T08:53:37.151Z,99295.50
2023-06-29T08:56:05.705Z,99295.72
2023-06-29T08:58:33.726Z,99296.22
2023-06-29T09:01:02.361Z,99296.72
2023-06-29T09:03:30.585Z,99294.94
2023-06-29T09:05:58.068Z,99295.41
2023-06-29T09:08:25.844Z,99299.59
2023-06-29T09:10:53.430Z,99299.56
2023-06-29T09:13:20.789Z,99295.19
2023-06-29T09:15:50.623Z,99305.91
2023-06-29T09:18:24.586Z,99308.25
2023-06-29T09:20:58.261Z,99310.22
2023-06-29T09:23:27.266Z,99301.97
2023-06-29T09:25:58.413Z,99304.56
2023-06-29T09:28:27.237Z,99303.13
2023-06-29T09:30:56.145Z,99298.69
2023-06-29T09:33:26.727Z,99298.31
2023-06-29T09:35:54.562Z,99300.28
2023-06-29T09:38:22.229Z,99295.25
2023-06-29T09:40:55.365Z,99303.44
2023-06-29T09:43:29.171Z,99299.91
2023-06-29T09:46:08.480Z,99293.50
2023-06-29T09:49:10.859Z,99306.53
2023-06-29T09:51:39.590Z,99303.75
2023-06-29T09:54:13.228Z,99297.91
2023-06-29T09:56:41.797Z,99295.28
2023-06-29T09:59:12.522Z,99296.41
2023-06-29T10:01:41.726Z,99292.88
2023-06-29T10:04:09.537Z,99293.06
2023-06-29T10:06:48.014Z,99286.28
2023-06-29T10:09:20.671Z,99286.28
2023-06-29T10:11:54.695Z,99278.69
2023-06-29T10:14:33.138Z,99267.06
2023-06-29T10:17:15.115Z,99265.72
2023-06-29T10:19:46.414Z,99263.25
2023-06-29T10:22:18.689Z,99261.31
2023-06-29T10:24:56.029Z,99262.94
2023-06-29T10:27:27.791Z,99262.94
2023-06-29T10:29:55.387Z,99265.53
2023-06-29T10:32:41.422Z,99254.88
2023-06-29T10:35:14.176Z,99259.94
2023-06-29T10:37:48.478Z,99252.75
2023-06-29T10:40:22.551Z,99244.22
2023-06-29T10:42:52.597Z,99244.75
2023-06-29T10:45:20.125Z,99240.50
2023-06-29T10:48:00.243Z,99233.13
2023-06-29T10:50:32.780Z,99238.50
2023-06-29T10:53:01.882Z,99236.94
2023-06-29T10:55:41.761Z,99233.22
2023-06-29T10:58:20.241Z,99242.69
2023-06-29T11:00:50.117Z,99239.47
2023-06-29T11:03:18.081Z,99241.25
2023-06-29T11:05:50.174Z,99231.41
2023-06-29T11:08:17.394Z,99225.59
2023-06-29T11:10:46.246Z,99226.91
2023-06-29T11:13:13.795Z,99237.41
2023-06-29T11:15:41.413Z,99228.50
2023-06-29T11:18:10.150Z,99233.91
2023-06-29T11:20:41.057Z,99223.53
2023-06-29T11:23:08.775Z,99222.75
2023-06-29T11:25:37.860Z,99215.06
2023-06-29T11:28:05.481Z,99217.34
2023-06-29T11:30:32.979Z,99217.44
2023-06-29T11:33:02.663Z,99211.78
2023-06-29T11:35:32.306Z,99214.78
2023-06-29T11:38:02.020Z,99212.97
2023-06-29T11:40:30.223Z,99208.41
2023-06-29T11:42:57.587Z,99198.69
2023-06-29T11:45:25.000Z,99207.28
2023-06-29T11:47:56.964Z,99206.31
2023-06-29T11:50:25.323Z,99198.81
2023-06-29T11:52:53.455Z,99189.66
2023-06-29T11:55:23.737Z,99184.44
2023-06-29T11:57:55.737Z,99187.28
2023-06-29T12:00:27.674Z,99178.00
2023-06-29T12:02:54.866Z,99177.44
2023-06-29T12:05:29.340Z,99173.28
2023-06-29T12:08:05.380Z,99166.81
2023-06-29T12:10:37.936Z,99157.03
2023-06-29T12:13:06.454Z,99155.03
2023-06-29T12:15:34.226Z,99157.06
2023-06-29T12:18:14.765Z,99160.28
2023-06-29T12:20:45.319Z,99151.94
2023-06-29T12:23:15.605Z,99144.47
2023-06-29T12:25:49.140Z,99146.13
2023-06-29T12:28:17.217Z,99135.94
2023-06-29T12:30:45.018Z,99137.56
2023-06-29T12:33:14.429Z,99132.25
2023-06-29T12:35:43.452Z,99119.13
2023-06-29T12:38:12.437Z,99121.84
2023-06-29T12:40:39.703Z,99125.88
2023-06-29T12:43:06.847Z,99121.88
2023-06-29T12:45:35.493Z,99119.47
2023-06-29T12:48:04.753Z,99124.22
2023-06-29T12:50:32.979Z,99113.56
2023-06-29T12:53:00.007Z,99113.16
2023-06-29T12:55:27.722Z,99109.19
2023-06-29T12:57:54.772Z,99106.78
2023-06-29T13:00:23.048Z,99102.03
2023-06-29T13:02:54.223Z,99105.22
2023-06-29T13:05:22.069Z,99092.53
2023-06-29T13:07:49.249Z,99094.09
2023-06-29T13:10:16.751Z,99090.13
2023-06-29T13:12:43.914Z,99093.28
2023-06-29T13:15:11.851Z,99086.09
2023-06-29T13:17:38.894Z,99088.91
2023-06-29T13:20:07.266Z,99093.28
2023-06-29T13:22:35.375Z,99086.06
2023-06-29T13:25:03.821Z,99080.44
2023-06-29T13:27:30.985Z,99077.19
2023-06-29T13:29:58.439Z,99075.56
2023-06-29T13:32:25.521Z,99077.94
2023-06-29T13:34:53.148Z,99069.72
2023-06-29T13:37:20.293Z,99067.19
2023-06-29T13:39:49.309Z,99062.25
2023-06-29T13:42:17.825Z,99061.97
2023-06-29T13:44:46.330Z,99057.72
2023-06-29T13:47:21.966Z,99060.19
2023-06-29T13:49:49.986Z,99061.75
2023-06-29T13:52:17.043Z,99052.06
2023-06-29T13:54:44.929Z,99055.88
2023-06-29T13:57:12.079Z,99051.44
2023-06-29T13:59:39.501Z,99052.50
2023-06-29T14:02:07.527Z,99045.72
2023-06-29T14:04:35.265Z,99046.78
2023-06-29T14:07:02.384Z,99036.53
2023-06-29T14:09:31.297Z,99033.25
2023-06-29T14:11:59.848Z,99035.81
2023-06-29T14:14:27.202Z,99035.91
2023-06-29T14:16:54.227Z,99032.38
2023-06-29T14:19:21.705Z,99026.38
2023-06-29T14:21:48.759Z,99026.31
2023-06-29T14:24:16.338Z,99023.53
2023-06-29T14:26:43.271Z,99023.28
2023-06-29T14:29:10.611Z,99020.94
2023-06-29T14:31:37.821Z,99023.16
2023-06-29T14:34:05.363Z,99016.69
2023-06-29T14:36:32.494Z,99022.25
2023-06-29T14:38:59.984Z,99015.28
2023-06-29T14:41:27.244Z,99022.19
2023-06-29T14:43:54.690Z,99014.34
2023-06-29T14:46:21.777Z,99006.06
2023-06-29T14:48:49.169Z,99007.16
2023-06-29T14:51:16.318Z,99010.91
2023-06-29T14:53:43.665Z,99002.50
2023-06-29T14:56:11.434Z,99009.00
2023-06-29T14:58:40.343Z,99006.03
2023-06-29T15:01:08.848Z,98996.19
2023-06-29T15:03:37.069Z,99001.94
2023-06-29T15:06:04.305Z,98998.16
2023-06-29T15:08:31.651Z,99000.75
2023-06-29T15:10:58.674Z,98998.06
2023-06-29T15:13:26.302Z,98994.19
2023-06-29T15:15:53.359Z,98999.94
2023-06-29T15:18:20.883Z,98995.38
2023-06-29T15:20:49.014Z,98992.75
2023-06-29T15:23:16.778Z,98982.44
2023-06-29T15:25:46.155Z,98991.59
2023-06-29T15:28:13.927Z,98987.38
2023-06-29T15:30:52.225Z,98992.72
2023-06-29T15:33:21.386Z,98980.41
2023-06-29T15:35:49.402Z,98984.34
2023-06-29T15:38:18.637Z,98977.13
2023-06-29T15:40:47.380Z,98987.59
2023-06-29T15:43:15.034Z,98984.03
2023-06-29T15:45:42.437Z,98983.66
2023-06-29T15:48:10.309Z,98977.22
2023-06-29T15:50:39.320Z,98972.47
2023-06-29T15:53:06.777Z,98965.34
2023-06-29T15:55:33.904Z,98969.34
2023-06-29T15:58:01.317Z,98961.81
2023-06-29T16:00:30.759Z,98973.34
2023-06-29T16:02:58.074Z,98964.59
2023-06-29T16:05:25.364Z,98961.84
2023-06-29T16:07:53.971Z,98959.88
2023-06-29T16:10:21.029Z,98955.09
2023-06-29T16:12:48.449Z,98957.47
2023-06-29T16:15:16.318Z,98955.09
2023-06-29T16:17:45.023Z,98956.25
2023-06-29T16:20:12.297Z,98951.50
2023-06-29T16:22:40.049Z,98955.09
2023-06-29T16:25:08.122Z,98944.38
2023-06-29T16:27:35.655Z,98947.97
2023-06-29T16:30:03.075Z,98947.16
2023-06-29T16:32:30.584Z,98948.38
2023-06-29T16:34:57.729Z,98933.25
2023-06-29T16:37:25.081Z,98951.16
2023-06-29T16:39:52.120Z,98940.03
2023-06-29T16:42:19.480Z,98937.25
2023-06-29T16:44:46.541Z,98937.66
2023-06-29T16:47:14.046Z,98946.38
2023-06-29T16:49:41.273Z,98938.00
2023-06-29T16:52:09.484Z,98942.75
2023-06-29T16:54:36.478Z,98936.81
2023-06-29T16:57:05.185Z,98939.19
2023-06-29T16:59:32.184Z,98946.31
2023-06-29T17:02:00.868Z,98938.34
2023-06-29T17:04:30.028Z,98932.41
2023-06-29T17:07:00.385Z,98939.13
2023-06-29T17:09:27.478Z,98933.91
2023-06-29T17:11:54.792Z,98934.66
2023-06-29T17:14:21.827Z,98931.91
2023-06-29T17:16:49.213Z,98940.56
2023-06-29T17:19:16.253Z,98943.72
2023-06-29T17:21:43.472Z,98940.09
2023-06-29T17:24:10.524Z,98940.44
2023-06-29T17:26:38.027Z,98937.66
2023-06-29T17:29:05.707Z,98938.03
2023-06-29T17:31:34.062Z,98937.56
2023-06-29T17:34:01.397Z,98932.38
2023-06-29T17:36:28.730Z,98936.69
2023-06-29T17:38:56.305Z,98946.16
2023-06-29T17:41:23.677Z,98939.38
2023-06-29T17:43:50.856Z,98938.94
2023-06-29T17:46:18.269Z,98932.19
2023-06-29T17:48:45.355Z,98938.06
2023-06-29T17:51:18.341Z,98931.66
2023-06-29T17:53:47.363Z,98923.31
2023-06-29T17:56:16.130Z,98926.41
2023-06-29T17:58:46.615Z,98927.94
2023-06-29T18:01:14.634Z,98921.50
2023-06-29T18:03:42.747Z,98924.63
2023-06-29T18:06:11.780Z,98923.75
2023-06-29T18:08:40.570Z,98929.22
2023-06-29T18:11:09.203Z,98928.31
2023-06-29T18:13:36.387Z,98931.41
2023-06-29T18:16:04.774Z,98925.72
2023-06-29T18:18:33.824Z,98922.47
2023-06-29T18:21:02.650Z,98931.00
2023-06-29T18:23:29.751Z,98935.59
2023-06-29T18:25:57.156Z,98940.22
2023-06-29T18:28:24.168Z,98936.84
2023-06-29T18:30:51.726Z,98933.53
2023-06-29T18:33:19.047Z,98943.63
2023-06-29T18:35:47.288Z,98938.69
2023-06-29T18:38:14.630Z,98933.72
2023-06-29T18:40:41.937Z,98946.16
2023-06-29T18:43:09.345Z,98947.06
2023-06-29T18:45:36.663Z,98945.31
2023-06-29T18:48:04.289Z,98947.00
2023-06-29T18:50:32.486Z,98937.28
2023-06-29T18:53:01.465Z,98946.47
2023-06-29T18:55:28.872Z,98950.19
2023-06-29T18:57:56.451Z,98950.66
2023-06-29T19:00:23.941Z,98945.66
2023-06-29T19:02:51.019Z,98955.59
2023-06-29T19:05:21.402Z,98961.59
2023-06-29T19:07:48.550Z,98959.72
2023-06-29T19:10:16.114Z,98954.72
2023-06-29T19:12:43.153Z,98961.47
2023-06-29T19:15:11.059Z,98956.88
2023-06-29T19:17:38.564Z,98964.06
2023-06-29T19:20:07.290Z,98965.38
2023-06-29T19:22:34.558Z,98961.91
2023-06-29T19:25:01.895Z,98962.44
2023-06-29T19:27:29.197Z,98957.47
2023-06-29T19:29:56.595Z,98963.03
2023-06-29T19:32:23.603Z,98965.38
2023-06-29T19:34:52.089Z,98961.56
2023-06-29T19:37:19.142Z,98962.41
2023-06-29T19:39:46.496Z,98967.13
2023-06-29T19:42:13.467Z,98974.72
2023-06-29T19:44:40.774Z,98973.97
2023-06-29T19:47:07.895Z,98975.91
2023-06-29T19:49:35.336Z,98980.28
2023-06-29T19:52:02.501Z,98983.06
2023-06-29T19:54:29.917Z,98980.78
2023-06-29T19:56:56.999Z,98985.13
2023-06-29T19:59:24.411Z,98984.09
2023-06-29T20:01:51.695Z,98984.84
2023-06-29T20:04:19.437Z,98989.19
2023-06-29T20:06:47.107Z,99002.56
2023-06-29T20:09:14.396Z,99002.19
2023-06-29T20:11:41.471Z,99006.50
2023-06-29T20:14:08.822Z,98997.06
2023-06-29T20:16:36.111Z,98998.63
2023-06-29T20:19:03.590Z,99003.41
2023-06-29T20:21:30.669Z,99001.09
2023-06-29T20:23:58.000Z,99005.34
2023-06-29T20:26:26.129Z,99003.81
2023-06-29T20:28:53.726Z,99001.16
2023-06-29T20:31:20.860Z,99007.00
2023-06-29T20:33:48.177Z,99015.16
2023-06-29T20:36:15.503Z,99007.78
2023-06-29T20:38:43.386Z,99015.72
2023-06-29T20:41:10.602Z,99008.00
2023-06-29T20:43:37.895Z,99010.81
2023-06-29T20:46:06.469Z,99014.41
2023-06-29T20:48:34.985Z,99007.00
2023-06-29T20:51:16.181Z,99009.78
2023-06-29T20:53:45.635Z,99009.34
2023-06-29T20:56:12.828Z,99005.50
2023-06-29T20:58:40.202Z,98998.16
2023-06-29T21:01:07.469Z,99001.72
2023-06-29T21:03:35.430Z,99000.13
2023-06-29T21:06:02.902Z,99004.81
2023-06-29T21:08:30.969Z,99004.00
2023-06-29T21:10:58.009Z,99005.13
2023-06-29T21:13:25.990Z,99005.66
2023-06-29T21:15:53.441Z,99006.91
2023-06-29T21:18:21.349Z,99000.34
2023-06-29T21:20:48.683Z,98997.00
2023-06-29T21:23:16.140Z,99002.91
2023-06-29T21:25:43.516Z,99000.22
2023-06-29T21:28:12.879Z,99006.47
2023-06-29T21:30:40.162Z,99005.00
2023-06-29T21:33:08.470Z,99009.31
2023-06-29T21:35:36.147Z,99014.13
2023-06-29T21:38:03.987Z,99006.72
2023-06-29T21:40:31.019Z,99006.88
2023-06-29T21:42:58.410Z,99008.16
2023-06-29T21:45:27.817Z,99014.88
2023-06-29T21:47:55.553Z,99003.00
2023-06-29T21:50:22.964Z,98999.63
2023-06-29T21:52:50.453Z,99005.53
2023-06-29T21:55:18.411Z,99012.25
2023-06-29T21:57:45.792Z,99006.13
2023-06-29T22:00:14.234Z,99005.50
2023-06-29T22:02:44.318Z,99011.69
2023-06-29T22:05:13.670Z,99007.78
2023-06-29T22:07:41.751Z,99019.16
2023-06-29T22:10:10.257Z,99018.16
2023-06-29T22:12:43.342Z,99013.97
2023-06-29T22:15:14.211Z,99017.31
2023-06-29T22:17:42.859Z,99015.84
2023-06-29T22:20:12.049Z,99015.47
2023-06-29T22:22:39.716Z,99018.34
2023-06-29T22:25:08.532Z,99015.72
2023-06-29T22:27:36.546Z,99023.25
2023-06-29T22:30:04.895Z,99024.97
2023-06-29T22:32:32.462Z,99015.00
2023-06-29T22:34:59.480Z,99005.84
2023-06-29T22:37:27.089Z,99011.41
2023-06-29T22:39:56.159Z,99022.09
2023-06-29T22:42:23.493Z,99003.97
2023-06-29T22:44:50.581Z,99015.47
2023-06-29T22:47:18.035Z,99004.69
2023-06-29T22:49:45.149Z,99007.53
2023-06-29T22:52:12.562Z,99008.97
2023-06-29T22:54:39.608Z,99006.38
2023-06-29T22:57:07.021Z,99002.66
2023-06-29T22:59:34.024Z,99006.31
2023-06-29T23:02:05.527Z,99003.69
2023-06-29T23:04:32.569Z,99008.78
2023-06-29T23:07:02.393Z,99015.41
2023-06-29T23:09:30.774Z,99006.38
2023-06-29T23:12:04.402Z,99010.84
2023-06-29T23:14:34.710Z,99005.97
2023-06-29T23:17:04.374Z,99004.97
2023-06-29T23:19:34.976Z,99006.69
2023-06-29T23:22:04.075Z,99013.84
2023-06-29T23:24:31.121Z,99002.75
2023-06-29T23:26:58.573Z,99009.72
2023-06-29T23:29:25.659Z,99002.97
2023-06-29T23:31:54.452Z,99008.22
2023-06-29T23:34:22.510Z,99002.09
2023-06-29T23:36:50.056Z,98995.94
2023-06-29T23:39:17.032Z,98995.44
2023-06-29T23:41:44.442Z,98993.31
2023-06-29T23:44:12.112Z,98994.22
2023-06-29T23:46:45.016Z,98998.16
2023-06-29T23:49:19.305Z,98989.00
2023-06-29T23:51:48.398Z,98992.63
2023-06-29T23:54:16.449Z,98990.00
2023-06-29T23:56:45.996Z,98995.53
2023-06-29T23:59:13.322Z,98991.28
